sensor_id;sensor_type;location;lat;lon;timestamp;temperature;humidity
14397;DHT22;50653;47.810;13.022;2023-06-24T00:01:25;17.30;99.90
14397;DHT22;50653;47.810;13.022;2023-06-24T00:03:51;17.30;99.90
14397;DHT22;50653;47.810;13.022;2023-06-24T00:06:19;17.40;99.90
14397;DHT22;50653;47.810;13.022;2023-06-24T00:08:51;17.10;99.90
14397;DHT22;50653;47.810;13.022;2023-06-24T00:11:17;16.70;99.90
14397;DHT22;50653;47.810;13.022;2023-06-24T00:13:44;16.70;99.90
14397;DHT22;50653;47.810;13.022;2023-06-24T00:16:10;17.00;99.90
14397;DHT22;50653;47.810;13.022;2023-06-24T00:18:37;16.90;99.90
14397;DHT22;50653;47.810;13.022;2023-06-24T00:21:06;16.70;99.90
14397;DHT22;50653;47.810;13.022;2023-06-24T00:23:31;16.80;99.90
14397;DHT22;50653;47.810;13.022;2023-06-24T00:26:00;16.40;99.90
14397;DHT22;50653;47.810;13.022;2023-06-24T00:28:26;16.60;99.90
14397;DHT22;50653;47.810;13.022;2023-06-24T00:30:53;16.70;99.90
14397;DHT22;50653;47.810;13.022;2023-06-24T00:33:19;17.30;99.90
14397;DHT22;50653;47.810;13.022;2023-06-24T00:35:45;17.60;99.90
14397;DHT22;50653;47.810;13.022;2023-06-24T00:38:11;17.00;99.90
14397;DHT22;50653;47.810;13.022;2023-06-24T00:40:38;17.20;99.90
14397;DHT22;50653;47.810;13.022;2023-06-24T00:43:05;17.10;99.90
14397;DHT22;50653;47.810;13.022;2023-06-24T00:45:33;17.00;99.90
14397;DHT22;50653;47.810;13.022;2023-06-24T00:47:59;16.90;99.90
14397;DHT22;50653;47.810;13.022;2023-06-24T00:50:25;17.50;99.90
14397;DHT22;50653;47.810;13.022;2023-06-24T00:52:52;17.20;99.90
14397;DHT22;50653;47.810;13.022;2023-06-24T00:55:18;16.60;99.90
14397;DHT22;50653;47.810;13.022;2023-06-24T00:57:51;16.80;99.90
14397;DHT22;50653;47.810;13.022;2023-06-24T01:00:19;16.90;99.90
14397;DHT22;50653;47.810;13.022;2023-06-24T01:02:47;16.30;99.90
14397;DHT22;50653;47.810;13.022;2023-06-24T01:05:14;16.90;99.90
14397;DHT22;50653;47.810;13.022;2023-06-24T01:07:41;17.30;99.90
14397;DHT22;50653;47.810;13.022;2023-06-24T01:10:08;17.20;99.90
14397;DHT22;50653;47.810;13.022;2023-06-24T01:12:39;16.50;99.90
14397;DHT22;50653;47.810;13.022;2023-06-24T01:15:09;16.30;99.90
14397;DHT22;50653;47.810;13.022;2023-06-24T01:17:51;16.40;99.90
14397;DHT22;50653;47.810;13.022;2023-06-24T01:20:44;16.60;99.90
14397;DHT22;50653;47.810;13.022;2023-06-24T01:31:54;17.60;99.90
14397;DHT22;50653;47.810;13.022;2023-06-24T01:37:14;17.60;99.90
14397;DHT22;50653;47.810;13.022;2023-06-24T01:39:52;17.00;99.90
14397;DHT22;50653;47.810;13.022;2023-06-24T01:42:19;16.50;99.90
14397;DHT22;50653;47.810;13.022;2023-06-24T01:44:48;16.50;99.90
14397;DHT22;50653;47.810;13.022;2023-06-24T01:47:17;17.10;99.90
14397;DHT22;50653;47.810;13.022;2023-06-24T01:49:45;17.50;99.90
14397;DHT22;50653;47.810;13.022;2023-06-24T01:52:11;16.60;99.90
14397;DHT22;50653;47.810;13.022;2023-06-24T01:54:39;16.60;99.90
14397;DHT22;50653;47.810;13.022;2023-06-24T01:57:08;16.00;99.90
14397;DHT22;50653;47.810;13.022;2023-06-24T01:59:37;15.90;99.90
14397;DHT22;50653;47.810;13.022;2023-06-24T02:02:06;16.80;99.90
14397;DHT22;50653;47.810;13.022;2023-06-24T02:04:33;17.10;99.90
14397;DHT22;50653;47.810;13.022;2023-06-24T02:07:02;17.20;99.90
14397;DHT22;50653;47.810;13.022;2023-06-24T02:09:30;17.20;99.90
14397;DHT22;50653;47.810;13.022;2023-06-24T02:11:58;17.50;99.90
14397;DHT22;50653;47.810;13.022;2023-06-24T02:14:26;17.20;99.90
14397;DHT22;50653;47.810;13.022;2023-06-24T02:16:54;17.50;99.90
14397;DHT22;50653;47.810;13.022;2023-06-24T02:19:27;17.50;99.90
14397;DHT22;50653;47.810;13.022;2023-06-24T02:21:57;17.50;99.90
14397;DHT22;50653;47.810;13.022;2023-06-24T02:24:25;17.40;99.90
14397;DHT22;50653;47.810;13.022;2023-06-24T02:26:52;17.20;99.90
14397;DHT22;50653;47.810;13.022;2023-06-24T02:29:18;17.40;99.90
14397;DHT22;50653;47.810;13.022;2023-06-24T02:31:45;17.30;99.90
14397;DHT22;50653;47.810;13.022;2023-06-24T02:34:12;17.30;99.90
14397;DHT22;50653;47.810;13.022;2023-06-24T02:36:37;17.30;99.90
14397;DHT22;50653;47.810;13.022;2023-06-24T02:39:04;17.50;99.90
14397;DHT22;50653;47.810;13.022;2023-06-24T02:41:29;17.20;99.90
14397;DHT22;50653;47.810;13.022;2023-06-24T02:43:55;17.30;99.90
14397;DHT22;50653;47.810;13.022;2023-06-24T02:46:22;17.50;99.90
14397;DHT22;50653;47.810;13.022;2023-06-24T02:48:49;17.00;99.90
14397;DHT22;50653;47.810;13.022;2023-06-24T02:51:16;17.30;99.90
14397;DHT22;50653;47.810;13.022;2023-06-24T02:53:42;17.40;99.90
14397;DHT22;50653;47.810;13.022;2023-06-24T02:56:12;17.50;99.90
14397;DHT22;50653;47.810;13.022;2023-06-24T02:58:40;17.60;99.90
14397;DHT22;50653;47.810;13.022;2023-06-24T03:01:16;17.50;99.90
14397;DHT22;50653;47.810;13.022;2023-06-24T03:03:47;17.50;99.90
14397;DHT22;50653;47.810;13.022;2023-06-24T03:06:15;17.40;99.90
14397;DHT22;50653;47.810;13.022;2023-06-24T03:08:44;17.30;99.90
14397;DHT22;50653;47.810;13.022;2023-06-24T03:11:12;17.00;99.90
14397;DHT22;50653;47.810;13.022;2023-06-24T03:13:38;16.90;99.90
14397;DHT22;50653;47.810;13.022;2023-06-24T03:16:12;17.20;99.90
14397;DHT22;50653;47.810;13.022;2023-06-24T03:18:44;17.20;99.90
14397;DHT22;50653;47.810;13.022;2023-06-24T03:21:10;17.50;99.90
14397;DHT22;50653;47.810;13.022;2023-06-24T03:23:38;17.60;99.90
14397;DHT22;50653;47.810;13.022;2023-06-24T03:26:06;17.50;99.90
14397;DHT22;50653;47.810;13.022;2023-06-24T03:28:32;17.50;99.90
14397;DHT22;50653;47.810;13.022;2023-06-24T03:31:08;17.60;99.90
14397;DHT22;50653;47.810;13.022;2023-06-24T03:33:33;17.40;99.90
14397;DHT22;50653;47.810;13.022;2023-06-24T03:35:59;17.50;99.90
14397;DHT22;50653;47.810;13.022;2023-06-24T03:38:29;17.50;99.90
14397;DHT22;50653;47.810;13.022;2023-06-24T03:40:56;17.30;99.90
14397;DHT22;50653;47.810;13.022;2023-06-24T03:43:22;17.30;99.90
14397;DHT22;50653;47.810;13.022;2023-06-24T03:45:48;17.40;99.90
14397;DHT22;50653;47.810;13.022;2023-06-24T03:48:14;17.40;99.90
14397;DHT22;50653;47.810;13.022;2023-06-24T03:50:40;17.30;99.90
14397;DHT22;50653;47.810;13.022;2023-06-24T03:53:06;17.20;99.90
14397;DHT22;50653;47.810;13.022;2023-06-24T03:55:32;17.20;99.90
14397;DHT22;50653;47.810;13.022;2023-06-24T03:57:58;17.10;99.90
14397;DHT22;50653;47.810;13.022;2023-06-24T04:00:23;17.30;99.90
14397;DHT22;50653;47.810;13.022;2023-06-24T04:02:50;17.30;99.90
14397;DHT22;50653;47.810;13.022;2023-06-24T04:05:17;17.20;99.90
14397;DHT22;50653;47.810;13.022;2023-06-24T04:07:43;17.20;99.90
14397;DHT22;50653;47.810;13.022;2023-06-24T04:10:13;17.20;99.90
14397;DHT22;50653;47.810;13.022;2023-06-24T04:12:38;17.20;99.90
14397;DHT22;50653;47.810;13.022;2023-06-24T04:15:04;17.20;99.90
14397;DHT22;50653;47.810;13.022;2023-06-24T04:17:32;17.30;99.90
14397;DHT22;50653;47.810;13.022;2023-06-24T04:19:59;17.10;99.90
14397;DHT22;50653;47.810;13.022;2023-06-24T04:22:25;17.00;99.90
14397;DHT22;50653;47.810;13.022;2023-06-24T04:24:56;17.10;99.90
14397;DHT22;50653;47.810;13.022;2023-06-24T04:27:23;17.10;99.90
14397;DHT22;50653;47.810;13.022;2023-06-24T04:29:49;17.00;99.90
14397;DHT22;50653;47.810;13.022;2023-06-24T04:32:14;17.10;99.90
14397;DHT22;50653;47.810;13.022;2023-06-24T04:34:40;17.20;99.90
14397;DHT22;50653;47.810;13.022;2023-06-24T04:37:06;17.10;99.90
14397;DHT22;50653;47.810;13.022;2023-06-24T04:39:32;17.00;99.90
14397;DHT22;50653;47.810;13.022;2023-06-24T04:41:58;17.00;99.90
14397;DHT22;50653;47.810;13.022;2023-06-24T04:44:23;17.00;99.90
14397;DHT22;50653;47.810;13.022;2023-06-24T04:46:49;16.80;99.90
14397;DHT22;50653;47.810;13.022;2023-06-24T04:49:17;17.00;99.90
14397;DHT22;50653;47.810;13.022;2023-06-24T04:51:42;17.10;99.90
14397;DHT22;50653;47.810;13.022;2023-06-24T04:54:08;17.10;99.90
14397;DHT22;50653;47.810;13.022;2023-06-24T04:56:34;17.10;99.90
14397;DHT22;50653;47.810;13.022;2023-06-24T04:59:00;17.10;99.90
14397;DHT22;50653;47.810;13.022;2023-06-24T05:01:26;17.10;99.90
14397;DHT22;50653;47.810;13.022;2023-06-24T05:03:52;17.10;99.90
14397;DHT22;50653;47.810;13.022;2023-06-24T05:06:17;17.10;99.90
14397;DHT22;50653;47.810;13.022;2023-06-24T05:08:43;17.10;99.90
14397;DHT22;50653;47.810;13.022;2023-06-24T05:11:08;17.10;99.90
14397;DHT22;50653;47.810;13.022;2023-06-24T05:13:34;17.10;99.90
14397;DHT22;50653;47.810;13.022;2023-06-24T05:16:00;17.00;99.90
14397;DHT22;50653;47.810;13.022;2023-06-24T05:18:25;16.90;99.90
14397;DHT22;50653;47.810;13.022;2023-06-24T05:20:51;17.00;99.90
14397;DHT22;50653;47.810;13.022;2023-06-24T05:23:17;17.00;99.90
14397;DHT22;50653;47.810;13.022;2023-06-24T05:25:43;16.70;99.90
14397;DHT22;50653;47.810;13.022;2023-06-24T05:28:09;16.80;99.90
14397;DHT22;50653;47.810;13.022;2023-06-24T05:30:34;16.90;99.90
14397;DHT22;50653;47.810;13.022;2023-06-24T05:33:00;16.80;99.90
14397;DHT22;50653;47.810;13.022;2023-06-24T05:35:25;16.90;99.90
14397;DHT22;50653;47.810;13.022;2023-06-24T05:37:51;17.00;99.90
14397;DHT22;50653;47.810;13.022;2023-06-24T05:40:17;16.90;99.90
14397;DHT22;50653;47.810;13.022;2023-06-24T05:42:42;16.90;99.90
14397;DHT22;50653;47.810;13.022;2023-06-24T05:45:08;16.90;99.90
14397;DHT22;50653;47.810;13.022;2023-06-24T05:47:34;16.80;99.90
14397;DHT22;50653;47.810;13.022;2023-06-24T05:50:00;16.50;99.90
14397;DHT22;50653;47.810;13.022;2023-06-24T05:52:25;16.70;99.90
14397;DHT22;50653;47.810;13.022;2023-06-24T05:54:51;16.70;99.90
14397;DHT22;50653;47.810;13.022;2023-06-24T05:57:16;16.50;99.90
14397;DHT22;50653;47.810;13.022;2023-06-24T05:59:42;16.70;99.90
14397;DHT22;50653;47.810;13.022;2023-06-24T06:02:08;16.70;99.90
14397;DHT22;50653;47.810;13.022;2023-06-24T06:04:33;16.80;99.90
14397;DHT22;50653;47.810;13.022;2023-06-24T06:06:59;17.00;99.90
14397;DHT22;50653;47.810;13.022;2023-06-24T06:09:25;16.60;99.90
14397;DHT22;50653;47.810;13.022;2023-06-24T06:11:50;16.70;99.90
14397;DHT22;50653;47.810;13.022;2023-06-24T06:14:16;16.30;99.90
14397;DHT22;50653;47.810;13.022;2023-06-24T06:16:41;16.50;99.90
14397;DHT22;50653;47.810;13.022;2023-06-24T06:19:07;16.60;99.90
14397;DHT22;50653;47.810;13.022;2023-06-24T06:21:33;16.80;99.90
14397;DHT22;50653;47.810;13.022;2023-06-24T06:23:58;17.00;99.90
14397;DHT22;50653;47.810;13.022;2023-06-24T06:26:24;17.00;99.90
14397;DHT22;50653;47.810;13.022;2023-06-24T06:28:50;17.00;99.90
14397;DHT22;50653;47.810;13.022;2023-06-24T06:31:16;17.10;99.90
14397;DHT22;50653;47.810;13.022;2023-06-24T06:33:43;17.10;99.90
14397;DHT22;50653;47.810;13.022;2023-06-24T06:36:09;17.10;99.90
14397;DHT22;50653;47.810;13.022;2023-06-24T06:38:35;16.80;99.90
14397;DHT22;50653;47.810;13.022;2023-06-24T06:41:00;16.90;99.90
14397;DHT22;50653;47.810;13.022;2023-06-24T06:43:26;16.90;99.90
14397;DHT22;50653;47.810;13.022;2023-06-24T06:45:52;16.80;99.90
14397;DHT22;50653;47.810;13.022;2023-06-24T06:48:18;16.90;99.90
14397;DHT22;50653;47.810;13.022;2023-06-24T06:50:45;17.00;99.90
14397;DHT22;50653;47.810;13.022;2023-06-24T06:53:10;17.20;99.90
14397;DHT22;50653;47.810;13.022;2023-06-24T06:55:36;16.80;99.90
14397;DHT22;50653;47.810;13.022;2023-06-24T06:58:03;16.90;99.90
14397;DHT22;50653;47.810;13.022;2023-06-24T07:00:28;17.00;99.90
14397;DHT22;50653;47.810;13.022;2023-06-24T07:02:54;17.00;99.90
14397;DHT22;50653;47.810;13.022;2023-06-24T07:05:19;17.10;99.90
14397;DHT22;50653;47.810;13.022;2023-06-24T07:07:46;17.00;99.90
14397;DHT22;50653;47.810;13.022;2023-06-24T07:10:11;17.10;99.90
14397;DHT22;50653;47.810;13.022;2023-06-24T07:12:38;17.10;99.90
14397;DHT22;50653;47.810;13.022;2023-06-24T07:15:04;17.10;99.90
14397;DHT22;50653;47.810;13.022;2023-06-24T07:17:30;17.20;99.90
14397;DHT22;50653;47.810;13.022;2023-06-24T07:19:55;17.10;99.90
14397;DHT22;50653;47.810;13.022;2023-06-24T07:22:21;17.20;99.90
14397;DHT22;50653;47.810;13.022;2023-06-24T07:24:46;17.20;99.90
14397;DHT22;50653;47.810;13.022;2023-06-24T07:27:12;17.20;99.90
14397;DHT22;50653;47.810;13.022;2023-06-24T07:29:38;17.20;99.90
14397;DHT22;50653;47.810;13.022;2023-06-24T07:32:03;17.20;99.90
14397;DHT22;50653;47.810;13.022;2023-06-24T07:34:29;17.10;99.90
14397;DHT22;50653;47.810;13.022;2023-06-24T07:36:56;17.10;99.90
14397;DHT22;50653;47.810;13.022;2023-06-24T07:39:22;17.10;99.90
14397;DHT22;50653;47.810;13.022;2023-06-24T07:41:48;17.00;99.90
14397;DHT22;50653;47.810;13.022;2023-06-24T07:44:13;17.00;99.90
14397;DHT22;50653;47.810;13.022;2023-06-24T07:46:39;17.00;99.90
14397;DHT22;50653;47.810;13.022;2023-06-24T07:49:05;17.00;99.90
14397;DHT22;50653;47.810;13.022;2023-06-24T07:51:30;17.20;99.90
14397;DHT22;50653;47.810;13.022;2023-06-24T07:53:56;17.00;99.90
14397;DHT22;50653;47.810;13.022;2023-06-24T07:56:21;17.10;99.90
14397;DHT22;50653;47.810;13.022;2023-06-24T07:58:47;17.10;99.90
14397;DHT22;50653;47.810;13.022;2023-06-24T08:01:13;17.10;99.90
14397;DHT22;50653;47.810;13.022;2023-06-24T08:03:38;17.10;99.90
14397;DHT22;50653;47.810;13.022;2023-06-24T08:06:04;17.10;99.90
14397;DHT22;50653;47.810;13.022;2023-06-24T08:08:30;17.30;99.90
14397;DHT22;50653;47.810;13.022;2023-06-24T08:10:56;17.30;99.90
14397;DHT22;50653;47.810;13.022;2023-06-24T08:13:21;17.40;99.90
14397;DHT22;50653;47.810;13.022;2023-06-24T08:15:47;17.40;99.90
14397;DHT22;50653;47.810;13.022;2023-06-24T08:18:12;17.40;99.90
14397;DHT22;50653;47.810;13.022;2023-06-24T08:20:38;17.50;99.90
14397;DHT22;50653;47.810;13.022;2023-06-24T08:23:04;17.50;99.90
14397;DHT22;50653;47.810;13.022;2023-06-24T08:25:29;17.60;99.90
14397;DHT22;50653;47.810;13.022;2023-06-24T08:27:56;17.60;99.90
14397;DHT22;50653;47.810;13.022;2023-06-24T08:30:21;17.70;99.90
14397;DHT22;50653;47.810;13.022;2023-06-24T08:32:47;17.60;99.90
14397;DHT22;50653;47.810;13.022;2023-06-24T08:35:13;17.70;99.90
14397;DHT22;50653;47.810;13.022;2023-06-24T08:37:39;17.70;99.90
14397;DHT22;50653;47.810;13.022;2023-06-24T08:40:05;17.70;99.90
14397;DHT22;50653;47.810;13.022;2023-06-24T08:42:32;17.80;99.90
14397;DHT22;50653;47.810;13.022;2023-06-24T08:44:58;17.90;99.90
14397;DHT22;50653;47.810;13.022;2023-06-24T08:47:24;17.90;99.90
14397;DHT22;50653;47.810;13.022;2023-06-24T08:49:59;17.90;99.90
14397;DHT22;50653;47.810;13.022;2023-06-24T08:52:30;17.90;99.90
14397;DHT22;50653;47.810;13.022;2023-06-24T08:54:59;18.00;99.90
14397;DHT22;50653;47.810;13.022;2023-06-24T08:57:25;18.00;99.90
14397;DHT22;50653;47.810;13.022;2023-06-24T08:59:50;18.00;99.90
14397;DHT22;50653;47.810;13.022;2023-06-24T09:02:16;18.00;99.90
14397;DHT22;50653;47.810;13.022;2023-06-24T09:04:41;18.00;99.90
14397;DHT22;50653;47.810;13.022;2023-06-24T09:07:07;18.00;99.90
14397;DHT22;50653;47.810;13.022;2023-06-24T09:09:42;18.00;99.90
14397;DHT22;50653;47.810;13.022;2023-06-24T09:12:11;17.90;99.90
14397;DHT22;50653;47.810;13.022;2023-06-24T09:14:37;17.90;99.90
14397;DHT22;50653;47.810;13.022;2023-06-24T09:17:03;17.90;99.90
14397;DHT22;50653;47.810;13.022;2023-06-24T09:19:31;18.10;99.90
14397;DHT22;50653;47.810;13.022;2023-06-24T09:22:05;18.10;99.90
14397;DHT22;50653;47.810;13.022;2023-06-24T09:24:36;18.20;99.90
14397;DHT22;50653;47.810;13.022;2023-06-24T09:27:03;18.30;99.90
14397;DHT22;50653;47.810;13.022;2023-06-24T09:29:33;18.30;99.90
14397;DHT22;50653;47.810;13.022;2023-06-24T09:31:59;18.30;99.90
14397;DHT22;50653;47.810;13.022;2023-06-24T09:34:28;18.30;99.90
14397;DHT22;50653;47.810;13.022;2023-06-24T09:36:58;18.30;99.90
14397;DHT22;50653;47.810;13.022;2023-06-24T09:39:26;18.30;99.90
14397;DHT22;50653;47.810;13.022;2023-06-24T09:41:56;18.30;99.90
14397;DHT22;50653;47.810;13.022;2023-06-24T09:44:22;18.40;99.90
14397;DHT22;50653;47.810;13.022;2023-06-24T09:46:47;18.50;99.90
14397;DHT22;50653;47.810;13.022;2023-06-24T09:49:14;18.50;99.90
14397;DHT22;50653;47.810;13.022;2023-06-24T09:51:44;18.60;99.90
14397;DHT22;50653;47.810;13.022;2023-06-24T09:54:12;18.70;99.90
14397;DHT22;50653;47.810;13.022;2023-06-24T09:56:43;18.60;99.90
14397;DHT22;50653;47.810;13.022;2023-06-24T09:59:12;18.70;99.90
14397;DHT22;50653;47.810;13.022;2023-06-24T10:01:44;18.70;99.90
14397;DHT22;50653;47.810;13.022;2023-06-24T10:04:16;18.80;99.90
14397;DHT22;50653;47.810;13.022;2023-06-24T10:06:42;18.90;99.90
14397;DHT22;50653;47.810;13.022;2023-06-24T10:09:08;18.90;99.90
14397;DHT22;50653;47.810;13.022;2023-06-24T10:11:34;18.90;99.90
14397;DHT22;50653;47.810;13.022;2023-06-24T10:14:00;18.80;99.90
14397;DHT22;50653;47.810;13.022;2023-06-24T10:16:26;19.00;99.90
14397;DHT22;50653;47.810;13.022;2023-06-24T10:18:51;19.00;99.90
14397;DHT22;50653;47.810;13.022;2023-06-24T10:21:17;19.00;99.90
14397;DHT22;50653;47.810;13.022;2023-06-24T10:26:30;19.20;99.90
14397;DHT22;50653;47.810;13.022;2023-06-24T10:37:01;19.20;99.90
14397;DHT22;50653;47.810;13.022;2023-06-24T10:47:46;19.30;99.90
14397;DHT22;50653;47.810;13.022;2023-06-24T10:50:13;19.40;99.90
14397;DHT22;50653;47.810;13.022;2023-06-24T10:52:42;19.40;99.90
14397;DHT22;50653;47.810;13.022;2023-06-24T10:55:08;19.40;99.90
14397;DHT22;50653;47.810;13.022;2023-06-24T10:57:34;19.40;99.90
14397;DHT22;50653;47.810;13.022;2023-06-24T11:00:01;19.40;99.90
14397;DHT22;50653;47.810;13.022;2023-06-24T11:02:28;19.40;99.90
14397;DHT22;50653;47.810;13.022;2023-06-24T11:04:56;19.40;99.90
14397;DHT22;50653;47.810;13.022;2023-06-24T11:07:23;19.40;99.90
14397;DHT22;50653;47.810;13.022;2023-06-24T11:09:54;19.50;99.90
14397;DHT22;50653;47.810;13.022;2023-06-24T11:12:24;19.50;99.90
14397;DHT22;50653;47.810;13.022;2023-06-24T11:14:51;19.50;99.90
14397;DHT22;50653;47.810;13.022;2023-06-24T11:17:16;19.60;99.90
14397;DHT22;50653;47.810;13.022;2023-06-24T11:19:44;19.60;99.90
14397;DHT22;50653;47.810;13.022;2023-06-24T11:22:10;19.70;99.90
14397;DHT22;50653;47.810;13.022;2023-06-24T11:24:36;19.60;99.90
14397;DHT22;50653;47.810;13.022;2023-06-24T11:27:04;19.80;99.90
14397;DHT22;50653;47.810;13.022;2023-06-24T11:29:30;19.80;99.90
14397;DHT22;50653;47.810;13.022;2023-06-24T11:31:56;19.90;99.60
14397;DHT22;50653;47.810;13.022;2023-06-24T11:34:22;19.90;99.90
14397;DHT22;50653;47.810;13.022;2023-06-24T11:36:48;20.00;99.70
14397;DHT22;50653;47.810;13.022;2023-06-24T11:39:25;20.10;99.20
14397;DHT22;50653;47.810;13.022;2023-06-24T11:41:52;20.10;98.90
14397;DHT22;50653;47.810;13.022;2023-06-24T11:44:21;20.10;98.50
14397;DHT22;50653;47.810;13.022;2023-06-24T11:46:48;20.10;97.90
14397;DHT22;50653;47.810;13.022;2023-06-24T11:49:15;20.00;97.40
14397;DHT22;50653;47.810;13.022;2023-06-24T11:51:49;20.00;97.70
14397;DHT22;50653;47.810;13.022;2023-06-24T11:54:17;20.00;97.10
14397;DHT22;50653;47.810;13.022;2023-06-24T11:56:48;20.00;97.70
14397;DHT22;50653;47.810;13.022;2023-06-24T11:59:25;19.90;96.90
14397;DHT22;50653;47.810;13.022;2023-06-24T12:01:56;19.90;96.90
14397;DHT22;50653;47.810;13.022;2023-06-24T12:04:28;20.00;96.60
14397;DHT22;50653;47.810;13.022;2023-06-24T12:06:54;20.00;96.60
14397;DHT22;50653;47.810;13.022;2023-06-24T12:09:20;19.90;96.60
14397;DHT22;50653;47.810;13.022;2023-06-24T12:11:45;20.00;96.70
14397;DHT22;50653;47.810;13.022;2023-06-24T12:14:11;20.00;96.30
14397;DHT22;50653;47.810;13.022;2023-06-24T12:16:39;20.10;96.80
14397;DHT22;50653;47.810;13.022;2023-06-24T12:19:05;20.20;97.00
14397;DHT22;50653;47.810;13.022;2023-06-24T12:21:31;20.20;96.80
14397;DHT22;50653;47.810;13.022;2023-06-24T12:23:57;20.40;97.00
14397;DHT22;50653;47.810;13.022;2023-06-24T12:26:23;20.30;96.70
14397;DHT22;50653;47.810;13.022;2023-06-24T12:28:48;20.40;96.40
14397;DHT22;50653;47.810;13.022;2023-06-24T12:31:14;20.40;96.30
14397;DHT22;50653;47.810;13.022;2023-06-24T12:33:40;20.40;95.70
14397;DHT22;50653;47.810;13.022;2023-06-24T12:36:05;20.40;95.80
14397;DHT22;50653;47.810;13.022;2023-06-24T12:38:31;20.30;95.40
14397;DHT22;50653;47.810;13.022;2023-06-24T12:40:57;20.30;95.70
14397;DHT22;50653;47.810;13.022;2023-06-24T12:43:23;20.40;96.00
14397;DHT22;50653;47.810;13.022;2023-06-24T12:45:48;20.50;95.90
14397;DHT22;50653;47.810;13.022;2023-06-24T12:48:16;20.70;96.20
14397;DHT22;50653;47.810;13.022;2023-06-24T12:50:42;20.70;95.50
14397;DHT22;50653;47.810;13.022;2023-06-24T12:53:08;20.80;95.10
14397;DHT22;50653;47.810;13.022;2023-06-24T12:55:36;20.80;94.80
14397;DHT22;50653;47.810;13.022;2023-06-24T12:58:01;20.90;95.30
14397;DHT22;50653;47.810;13.022;2023-06-24T13:00:27;21.00;94.50
14397;DHT22;50653;47.810;13.022;2023-06-24T13:02:53;20.90;94.10
14397;DHT22;50653;47.810;13.022;2023-06-24T13:05:18;20.90;94.10
14397;DHT22;50653;47.810;13.022;2023-06-24T13:07:44;21.00;94.10
14397;DHT22;50653;47.810;13.022;2023-06-24T13:10:10;21.00;93.80
14397;DHT22;50653;47.810;13.022;2023-06-24T13:12:36;21.10;93.80
14397;DHT22;50653;47.810;13.022;2023-06-24T13:15:03;21.10;93.40
14397;DHT22;50653;47.810;13.022;2023-06-24T13:17:32;21.00;93.10
14397;DHT22;50653;47.810;13.022;2023-06-24T13:19:58;21.00;92.80
14397;DHT22;50653;47.810;13.022;2023-06-24T13:22:23;21.10;92.50
14397;DHT22;50653;47.810;13.022;2023-06-24T13:24:49;21.00;91.00
14397;DHT22;50653;47.810;13.022;2023-06-24T13:27:16;21.00;91.20
14397;DHT22;50653;47.810;13.022;2023-06-24T13:29:42;21.00;90.70
14397;DHT22;50653;47.810;13.022;2023-06-24T13:32:08;21.10;91.10
14397;DHT22;50653;47.810;13.022;2023-06-24T13:34:34;21.30;91.00
14397;DHT22;50653;47.810;13.022;2023-06-24T13:37:00;21.20;91.10
14397;DHT22;50653;47.810;13.022;2023-06-24T13:39:25;21.30;91.00
14397;DHT22;50653;47.810;13.022;2023-06-24T13:41:52;21.30;89.60
14397;DHT22;50653;47.810;13.022;2023-06-24T13:44:18;21.40;89.60
14397;DHT22;50653;47.810;13.022;2023-06-24T13:46:43;21.50;89.00
14397;DHT22;50653;47.810;13.022;2023-06-24T13:49:10;21.50;89.80
14397;DHT22;50653;47.810;13.022;2023-06-24T13:51:36;21.60;87.70
14397;DHT22;50653;47.810;13.022;2023-06-24T13:54:01;21.50;86.70
14397;DHT22;50653;47.810;13.022;2023-06-24T13:56:27;21.40;86.60
14397;DHT22;50653;47.810;13.022;2023-06-24T13:58:54;21.50;88.10
14397;DHT22;50653;47.810;13.022;2023-06-24T14:01:21;21.60;86.40
14397;DHT22;50653;47.810;13.022;2023-06-24T14:03:47;21.60;86.80
14397;DHT22;50653;47.810;13.022;2023-06-24T14:06:15;21.60;86.70
14397;DHT22;50653;47.810;13.022;2023-06-24T14:08:42;21.60;85.50
14397;DHT22;50653;47.810;13.022;2023-06-24T14:11:07;21.60;86.20
14397;DHT22;50653;47.810;13.022;2023-06-24T14:13:33;21.70;86.80
14397;DHT22;50653;47.810;13.022;2023-06-24T14:15:59;21.70;85.20
14397;DHT22;50653;47.810;13.022;2023-06-24T14:18:24;21.70;83.20
14397;DHT22;50653;47.810;13.022;2023-06-24T14:20:51;21.80;82.70
14397;DHT22;50653;47.810;13.022;2023-06-24T14:23:17;22.00;83.10
14397;DHT22;50653;47.810;13.022;2023-06-24T14:25:43;21.80;82.90
14397;DHT22;50653;47.810;13.022;2023-06-24T14:28:09;21.90;83.00
14397;DHT22;50653;47.810;13.022;2023-06-24T14:30:34;22.00;82.00
14397;DHT22;50653;47.810;13.022;2023-06-24T14:33:00;22.10;81.20
14397;DHT22;50653;47.810;13.022;2023-06-24T14:35:26;22.20;81.10
14397;DHT22;50653;47.810;13.022;2023-06-24T14:37:52;22.40;80.90
14397;DHT22;50653;47.810;13.022;2023-06-24T14:40:18;22.30;80.60
14397;DHT22;50653;47.810;13.022;2023-06-24T14:42:43;22.40;81.00
14397;DHT22;50653;47.810;13.022;2023-06-24T14:45:09;22.50;78.20
14397;DHT22;50653;47.810;13.022;2023-06-24T14:47:35;22.60;77.60
14397;DHT22;50653;47.810;13.022;2023-06-24T14:50:02;22.60;76.80
14397;DHT22;50653;47.810;13.022;2023-06-24T14:52:28;22.60;79.20
14397;DHT22;50653;47.810;13.022;2023-06-24T14:54:53;22.50;85.40
14397;DHT22;50653;47.810;13.022;2023-06-24T14:57:20;22.40;86.30
14397;DHT22;50653;47.810;13.022;2023-06-24T14:59:45;22.70;80.60
14397;DHT22;50653;47.810;13.022;2023-06-24T15:02:11;22.70;80.90
14397;DHT22;50653;47.810;13.022;2023-06-24T15:04:37;22.70;79.20
14397;DHT22;50653;47.810;13.022;2023-06-24T15:07:04;22.80;78.50
14397;DHT22;50653;47.810;13.022;2023-06-24T15:09:30;22.90;76.10
14397;DHT22;50653;47.810;13.022;2023-06-24T15:11:55;23.10;75.80
14397;DHT22;50653;47.810;13.022;2023-06-24T15:14:21;23.20;74.90
14397;DHT22;50653;47.810;13.022;2023-06-24T15:16:46;23.40;73.10
14397;DHT22;50653;47.810;13.022;2023-06-24T15:19:12;23.40;73.60
14397;DHT22;50653;47.810;13.022;2023-06-24T15:21:38;23.80;73.50
14397;DHT22;50653;47.810;13.022;2023-06-24T15:24:04;24.40;70.60
14397;DHT22;50653;47.810;13.022;2023-06-24T15:26:30;24.60;69.10
14397;DHT22;50653;47.810;13.022;2023-06-24T15:28:55;24.60;67.60
14397;DHT22;50653;47.810;13.022;2023-06-24T15:31:21;24.40;68.10
14397;DHT22;50653;47.810;13.022;2023-06-24T15:33:46;24.30;67.00
14397;DHT22;50653;47.810;13.022;2023-06-24T15:36:12;24.30;67.20
14397;DHT22;50653;47.810;13.022;2023-06-24T15:38:38;24.20;66.60
14397;DHT22;50653;47.810;13.022;2023-06-24T15:41:03;24.10;66.80
14397;DHT22;50653;47.810;13.022;2023-06-24T15:43:29;24.10;67.20